sensor_id;sensor_type;location;lat;lon;timestamp;P1;durP1;ratioP1;P2;durP2;ratioP2
70293;SDS011;74367;35.280;-77.632;2024-01-30T00:00:15;1.40;;;0.30;;
70293;SDS011;74367;35.280;-77.632;2024-01-30T00:02:41;1.70;;;0.25;;
70293;SDS011;74367;35.280;-77.632;2024-01-30T00:05:08;1.25;;;0.20;;
70293;SDS011;74367;35.280;-77.632;2024-01-30T00:07:34;1.30;;;0.20;;
70293;SDS011;74367;35.280;-77.632;2024-01-30T00:10:00;2.28;;;0.40;;
70293;SDS011;74367;35.280;-77.632;2024-01-30T00:12:26;1.90;;;0.40;;
70293;SDS011;74367;35.280;-77.632;2024-01-30T00:14:52;1.60;;;0.20;;
70293;SDS011;74367;35.280;-77.632;2024-01-30T00:17:18;1.70;;;0.37;;
70293;SDS011;74367;35.280;-77.632;2024-01-30T00:19:46;2.70;;;0.40;;
70293;SDS011;74367;35.280;-77.632;2024-01-30T00:22:12;1.70;;;0.20;;
70293;SDS011;74367;35.280;-77.632;2024-01-30T00:24:38;1.48;;;0.40;;
70293;SDS011;74367;35.280;-77.632;2024-01-30T00:27:03;3.43;;;0.30;;
70293;SDS011;74367;35.280;-77.632;2024-01-30T00:29:30;1.48;;;0.28;;
70293;SDS011;74367;35.280;-77.632;2024-01-30T00:31:59;1.70;;;0.50;;
70293;SDS011;74367;35.280;-77.632;2024-01-30T00:34:25;1.80;;;0.30;;
70293;SDS011;74367;35.280;-77.632;2024-01-30T00:36:51;1.70;;;0.40;;
70293;SDS011;74367;35.280;-77.632;2024-01-30T00:39:17;1.30;;;0.20;;
70293;SDS011;74367;35.280;-77.632;2024-01-30T00:41:44;1.55;;;0.35;;
70293;SDS011;74367;35.280;-77.632;2024-01-30T00:44:10;1.52;;;0.25;;
70293;SDS011;74367;35.280;-77.632;2024-01-30T00:46:36;1.55;;;0.38;;
70293;SDS011;74367;35.280;-77.632;2024-01-30T00:49:02;1.60;;;0.40;;
70293;SDS011;74367;35.280;-77.632;2024-01-30T00:51:31;1.48;;;0.32;;
70293;SDS011;74367;35.280;-77.632;2024-01-30T00:53:57;1.63;;;0.50;;
70293;SDS011;74367;35.280;-77.632;2024-01-30T00:56:23;1.65;;;0.40;;
70293;SDS011;74367;35.280;-77.632;2024-01-30T00:58:49;2.70;;;0.30;;
70293;SDS011;74367;35.280;-77.632;2024-01-30T01:01:15;1.50;;;0.40;;
70293;SDS011;74367;35.280;-77.632;2024-01-30T01:03:41;2.42;;;0.55;;
70293;SDS011;74367;35.280;-77.632;2024-01-30T01:06:08;2.65;;;0.63;;
70293;SDS011;74367;35.280;-77.632;2024-01-30T01:08:35;2.97;;;0.43;;
70293;SDS011;74367;35.280;-77.632;2024-01-30T01:11:01;1.83;;;0.50;;
70293;SDS011;74367;35.280;-77.632;2024-01-30T01:13:28;2.13;;;0.50;;
70293;SDS011;74367;35.280;-77.632;2024-01-30T01:15:54;2.33;;;0.60;;
70293;SDS011;74367;35.280;-77.632;2024-01-30T01:18:20;2.67;;;0.40;;
70293;SDS011;74367;35.280;-77.632;2024-01-30T01:20:46;1.97;;;0.57;;
70293;SDS011;74367;35.280;-77.632;2024-01-30T01:23:12;1.45;;;0.30;;
70293;SDS011;74367;35.280;-77.632;2024-01-30T01:25:38;1.88;;;0.50;;
70293;SDS011;74367;35.280;-77.632;2024-01-30T01:28:04;2.03;;;0.35;;
70293;SDS011;74367;35.280;-77.632;2024-01-30T01:30:31;1.50;;;0.40;;
70293;SDS011;74367;35.280;-77.632;2024-01-30T01:32:57;2.17;;;0.50;;
70293;SDS011;74367;35.280;-77.632;2024-01-30T01:35:26;2.80;;;0.30;;
70293;SDS011;74367;35.280;-77.632;2024-01-30T01:37:54;1.77;;;0.20;;
70293;SDS011;74367;35.280;-77.632;2024-01-30T01:40:22;1.67;;;0.32;;
70293;SDS011;74367;35.280;-77.632;2024-01-30T01:42:49;1.67;;;0.30;;
70293;SDS011;74367;35.280;-77.632;2024-01-30T01:45:18;1.90;;;0.43;;
70293;SDS011;74367;35.280;-77.632;2024-01-30T01:47:46;1.25;;;0.20;;
70293;SDS011;74367;35.280;-77.632;2024-01-30T01:50:16;2.58;;;0.40;;
70293;SDS011;74367;35.280;-77.632;2024-01-30T01:52:49;1.80;;;0.35;;
70293;SDS011;74367;35.280;-77.632;2024-01-30T01:55:17;1.67;;;0.30;;
70293;SDS011;74367;35.280;-77.632;2024-01-30T01:57:50;2.55;;;0.30;;
70293;SDS011;74367;35.280;-77.632;2024-01-30T02:00:16;2.28;;;0.30;;
70293;SDS011;74367;35.280;-77.632;2024-01-30T02:02:44;1.48;;;0.30;;
70293;SDS011;74367;35.280;-77.632;2024-01-30T02:05:12;1.50;;;0.30;;
70293;SDS011;74367;35.280;-77.632;2024-01-30T02:07:38;2.17;;;0.50;;
70293;SDS011;74367;35.280;-77.632;2024-01-30T02:10:05;2.88;;;0.28;;
70293;SDS011;74367;35.280;-77.632;2024-01-30T02:12:32;1.98;;;0.40;;
70293;SDS011;74367;35.280;-77.632;2024-01-30T02:14:58;1.67;;;0.30;;
70293;SDS011;74367;35.280;-77.632;2024-01-30T02:17:24;1.53;;;0.27;;
70293;SDS011;74367;35.280;-77.632;2024-01-30T02:19:51;1.15;;;0.13;;
70293;SDS011;74367;35.280;-77.632;2024-01-30T02:22:17;2.78;;;0.45;;
70293;SDS011;74367;35.280;-77.632;2024-01-30T02:24:45;1.48;;;0.38;;
70293;SDS011;74367;35.280;-77.632;2024-01-30T02:27:11;3.20;;;0.50;;
70293;SDS011;74367;35.280;-77.632;2024-01-30T02:29:37;2.33;;;0.77;;
70293;SDS011;74367;35.280;-77.632;2024-01-30T02:32:03;2.35;;;0.30;;
70293;SDS011;74367;35.280;-77.632;2024-01-30T02:34:30;1.80;;;0.40;;
70293;SDS011;74367;35.280;-77.632;2024-01-30T02:36:56;2.40;;;0.50;;
70293;SDS011;74367;35.280;-77.632;2024-01-30T02:39:22;1.70;;;0.30;;
70293;SDS011;74367;35.280;-77.632;2024-01-30T02:41:48;1.88;;;0.43;;
70293;SDS011;74367;35.280;-77.632;2024-01-30T02:44:14;2.30;;;0.60;;
70293;SDS011;74367;35.280;-77.632;2024-01-30T02:46:40;3.75;;;0.30;;
70293;SDS011;74367;35.280;-77.632;2024-01-30T02:49:06;1.73;;;0.37;;
70293;SDS011;74367;35.280;-77.632;2024-01-30T02:51:32;2.72;;;0.50;;
70293;SDS011;74367;35.280;-77.632;2024-01-30T02:53:58;3.40;;;0.70;;
70293;SDS011;74367;35.280;-77.632;2024-01-30T02:56:24;2.20;;;0.38;;
70293;SDS011;74367;35.280;-77.632;2024-01-30T02:58:50;3.07;;;0.40;;
70293;SDS011;74367;35.280;-77.632;2024-01-30T03:01:16;1.88;;;0.40;;
70293;SDS011;74367;35.280;-77.632;2024-01-30T03:03:42;1.80;;;0.30;;
70293;SDS011;74367;35.280;-77.632;2024-01-30T03:06:08;1.60;;;0.30;;
70293;SDS011;74367;35.280;-77.632;2024-01-30T03:08:34;2.20;;;0.43;;
70293;SDS011;74367;35.280;-77.632;2024-01-30T03:11:00;2.53;;;0.50;;
70293;SDS011;74367;35.280;-77.632;2024-01-30T03:13:26;3.95;;;0.55;;
70293;SDS011;74367;35.280;-77.632;2024-01-30T03:15:52;1.98;;;0.40;;
70293;SDS011;74367;35.280;-77.632;2024-01-30T03:18:18;3.17;;;0.20;;
70293;SDS011;74367;35.280;-77.632;2024-01-30T03:20:44;2.63;;;0.30;;
70293;SDS011;74367;35.280;-77.632;2024-01-30T03:23:10;2.33;;;0.50;;
70293;SDS011;74367;35.280;-77.632;2024-01-30T03:25:36;2.65;;;0.57;;
70293;SDS011;74367;35.280;-77.632;2024-01-30T03:28:02;2.70;;;0.40;;
70293;SDS011;74367;35.280;-77.632;2024-01-30T03:30:28;3.00;;;0.60;;
70293;SDS011;74367;35.280;-77.632;2024-01-30T03:32:55;1.50;;;0.10;;
70293;SDS011;74367;35.280;-77.632;2024-01-30T03:35:21;3.13;;;0.60;;
70293;SDS011;74367;35.280;-77.632;2024-01-30T03:37:47;1.87;;;0.20;;
70293;SDS011;74367;35.280;-77.632;2024-01-30T03:40:13;3.20;;;0.73;;
70293;SDS011;74367;35.280;-77.632;2024-01-30T03:42:39;2.35;;;0.40;;
70293;SDS011;74367;35.280;-77.632;2024-01-30T03:45:05;2.38;;;0.40;;
70293;SDS011;74367;35.280;-77.632;2024-01-30T03:47:31;1.63;;;0.27;;
70293;SDS011;74367;35.280;-77.632;2024-01-30T03:49:57;3.00;;;0.60;;
70293;SDS011;74367;35.280;-77.632;2024-01-30T03:52:23;2.50;;;0.50;;
70293;SDS011;74367;35.280;-77.632;2024-01-30T03:54:49;2.10;;;0.38;;
70293;SDS011;74367;35.280;-77.632;2024-01-30T03:57:15;2.10;;;0.50;;
70293;SDS011;74367;35.280;-77.632;2024-01-30T03:59:43;1.73;;;0.30;;
70293;SDS011;74367;35.280;-77.632;2024-01-30T04:02:10;2.38;;;0.40;;
70293;SDS011;74367;35.280;-77.632;2024-01-30T04:04:37;1.90;;;0.38;;
70293;SDS011;74367;35.280;-77.632;2024-01-30T04:07:03;2.35;;;0.52;;
70293;SDS011;74367;35.280;-77.632;2024-01-30T04:09:29;4.47;;;0.60;;
70293;SDS011;74367;35.280;-77.632;2024-01-30T04:11:55;1.88;;;0.35;;
70293;SDS011;74367;35.280;-77.632;2024-01-30T04:14:21;2.40;;;0.32;;
70293;SDS011;74367;35.280;-77.632;2024-01-30T04:16:46;3.13;;;0.50;;
70293;SDS011;74367;35.280;-77.632;2024-01-30T04:19:12;2.53;;;0.50;;
70293;SDS011;74367;35.280;-77.632;2024-01-30T04:21:38;2.38;;;0.52;;
70293;SDS011;74367;35.280;-77.632;2024-01-30T04:24:07;2.10;;;0.40;;
70293;SDS011;74367;35.280;-77.632;2024-01-30T04:26:33;2.60;;;0.40;;
70293;SDS011;74367;35.280;-77.632;2024-01-30T04:28:59;1.73;;;0.25;;
70293;SDS011;74367;35.280;-77.632;2024-01-30T04:31:25;2.35;;;0.52;;
70293;SDS011;74367;35.280;-77.632;2024-01-30T04:33:51;3.70;;;0.50;;
70293;SDS011;74367;35.280;-77.632;2024-01-30T04:36:16;2.47;;;0.30;;
70293;SDS011;74367;35.280;-77.632;2024-01-30T04:38:42;1.92;;;0.20;;
70293;SDS011;74367;35.280;-77.632;2024-01-30T04:41:08;2.00;;;0.32;;
70293;SDS011;74367;35.280;-77.632;2024-01-30T04:43:34;3.10;;;0.70;;
70293;SDS011;74367;35.280;-77.632;2024-01-30T04:46:01;2.57;;;0.40;;
70293;SDS011;74367;35.280;-77.632;2024-01-30T04:48:27;2.75;;;0.70;;
70293;SDS011;74367;35.280;-77.632;2024-01-30T04:50:53;2.58;;;0.57;;
70293;SDS011;74367;35.280;-77.632;2024-01-30T04:53:19;3.03;;;0.82;;
70293;SDS011;74367;35.280;-77.632;2024-01-30T04:55:45;2.33;;;0.40;;
70293;SDS011;74367;35.280;-77.632;2024-01-30T04:58:11;2.60;;;0.47;;
70293;SDS011;74367;35.280;-77.632;2024-01-30T05:00:37;2.95;;;0.93;;
70293;SDS011;74367;35.280;-77.632;2024-01-30T05:03:03;2.20;;;0.67;;
70293;SDS011;74367;35.280;-77.632;2024-01-30T05:05:29;2.83;;;0.60;;
70293;SDS011;74367;35.280;-77.632;2024-01-30T05:07:55;3.72;;;0.60;;
70293;SDS011;74367;35.280;-77.632;2024-01-30T05:10:21;1.75;;;0.38;;
70293;SDS011;74367;35.280;-77.632;2024-01-30T05:12:47;2.78;;;0.77;;
70293;SDS011;74367;35.280;-77.632;2024-01-30T05:15:13;2.63;;;0.30;;
70293;SDS011;74367;35.280;-77.632;2024-01-30T05:17:39;2.13;;;0.50;;
70293;SDS011;74367;35.280;-77.632;2024-01-30T05:20:05;2.20;;;0.40;;
70293;SDS011;74367;35.280;-77.632;2024-01-30T05:22:32;2.53;;;0.60;;
70293;SDS011;74367;35.280;-77.632;2024-01-30T05:24:58;3.30;;;0.70;;
70293;SDS011;74367;35.280;-77.632;2024-01-30T05:27:24;2.88;;;0.50;;
70293;SDS011;74367;35.280;-77.632;2024-01-30T05:29:50;2.83;;;0.68;;
70293;SDS011;74367;35.280;-77.632;2024-01-30T05:32:17;4.97;;;0.60;;
70293;SDS011;74367;35.280;-77.632;2024-01-30T05:34:43;2.17;;;0.60;;
70293;SDS011;74367;35.280;-77.632;2024-01-30T05:37:10;3.25;;;0.77;;
70293;SDS011;74367;35.280;-77.632;2024-01-30T05:39:39;3.25;;;0.88;;
70293;SDS011;74367;35.280;-77.632;2024-01-30T05:42:05;3.53;;;0.80;;
70293;SDS011;74367;35.280;-77.632;2024-01-30T05:44:31;3.15;;;0.60;;
70293;SDS011;74367;35.280;-77.632;2024-01-30T05:46:57;2.15;;;0.60;;
70293;SDS011;74367;35.280;-77.632;2024-01-30T05:49:23;3.45;;;0.70;;
70293;SDS011;74367;35.280;-77.632;2024-01-30T05:51:49;2.27;;;0.40;;
70293;SDS011;74367;35.280;-77.632;2024-01-30T05:54:15;2.42;;;0.55;;
70293;SDS011;74367;35.280;-77.632;2024-01-30T05:56:41;2.83;;;0.40;;
70293;SDS011;74367;35.280;-77.632;2024-01-30T05:59:06;2.75;;;0.68;;
70293;SDS011;74367;35.280;-77.632;2024-01-30T06:01:32;2.47;;;0.50;;
70293;SDS011;74367;35.280;-77.632;2024-01-30T06:04:00;3.50;;;0.75;;
70293;SDS011;74367;35.280;-77.632;2024-01-30T06:06:26;2.42;;;0.65;;
70293;SDS011;74367;35.280;-77.632;2024-01-30T06:08:53;2.65;;;0.75;;
70293;SDS011;74367;35.280;-77.632;2024-01-30T06:11:21;2.90;;;0.73;;
70293;SDS011;74367;35.280;-77.632;2024-01-30T06:13:47;3.70;;;0.80;;
70293;SDS011;74367;35.280;-77.632;2024-01-30T06:16:13;3.25;;;1.05;;
70293;SDS011;74367;35.280;-77.632;2024-01-30T06:18:39;2.30;;;0.50;;
70293;SDS011;74367;35.280;-77.632;2024-01-30T06:21:05;3.40;;;0.90;;
70293;SDS011;74367;35.280;-77.632;2024-01-30T06:23:32;3.35;;;0.50;;
70293;SDS011;74367;35.280;-77.632;2024-01-30T06:25:59;2.90;;;0.70;;
70293;SDS011;74367;35.280;-77.632;2024-01-30T06:28:24;3.60;;;0.57;;
70293;SDS011;74367;35.280;-77.632;2024-01-30T06:30:50;3.43;;;0.70;;
70293;SDS011;74367;35.280;-77.632;2024-01-30T06:33:16;3.90;;;1.02;;
70293;SDS011;74367;35.280;-77.632;2024-01-30T06:35:42;2.85;;;0.60;;
70293;SDS011;74367;35.280;-77.632;2024-01-30T06:38:11;2.72;;;0.68;;
70293;SDS011;74367;35.280;-77.632;2024-01-30T06:40:37;3.10;;;0.53;;
70293;SDS011;74367;35.280;-77.632;2024-01-30T06:43:03;4.85;;;0.40;;
70293;SDS011;74367;35.280;-77.632;2024-01-30T06:45:30;3.78;;;0.45;;
70293;SDS011;74367;35.280;-77.632;2024-01-30T06:47:56;2.97;;;0.52;;
70293;SDS011;74367;35.280;-77.632;2024-01-30T06:50:22;3.17;;;0.30;;
70293;SDS011;74367;35.280;-77.632;2024-01-30T06:52:47;4.20;;;0.82;;
70293;SDS011;74367;35.280;-77.632;2024-01-30T06:55:13;3.15;;;0.60;;
70293;SDS011;74367;35.280;-77.632;2024-01-30T06:57:39;3.92;;;0.82;;
70293;SDS011;74367;35.280;-77.632;2024-01-30T07:00:05;4.73;;;0.80;;
70293;SDS011;74367;35.280;-77.632;2024-01-30T07:02:32;5.32;;;0.98;;
70293;SDS011;74367;35.280;-77.632;2024-01-30T07:04:58;4.20;;;0.75;;
70293;SDS011;74367;35.280;-77.632;2024-01-30T07:07:24;4.05;;;1.17;;
70293;SDS011;74367;35.280;-77.632;2024-01-30T07:09:50;6.50;;;0.93;;
70293;SDS011;74367;35.280;-77.632;2024-01-30T07:12:22;3.05;;;0.47;;
70293;SDS011;74367;35.280;-77.632;2024-01-30T07:14:49;2.17;;;0.50;;
70293;SDS011;74367;35.280;-77.632;2024-01-30T07:17:15;3.08;;;0.70;;
70293;SDS011;74367;35.280;-77.632;2024-01-30T07:19:41;4.28;;;0.77;;
70293;SDS011;74367;35.280;-77.632;2024-01-30T07:22:07;5.00;;;0.60;;
70293;SDS011;74367;35.280;-77.632;2024-01-30T07:24:34;3.80;;;0.88;;
70293;SDS011;74367;35.280;-77.632;2024-01-30T07:27:00;3.55;;;0.93;;
70293;SDS011;74367;35.280;-77.632;2024-01-30T07:29:26;4.25;;;0.73;;
70293;SDS011;74367;35.280;-77.632;2024-01-30T07:31:52;3.22;;;0.90;;
70293;SDS011;74367;35.280;-77.632;2024-01-30T07:34:18;6.60;;;0.93;;
70293;SDS011;74367;35.280;-77.632;2024-01-30T07:36:44;3.47;;;0.90;;
70293;SDS011;74367;35.280;-77.632;2024-01-30T07:39:12;5.70;;;0.75;;
70293;SDS011;74367;35.280;-77.632;2024-01-30T07:41:38;3.40;;;0.70;;
70293;SDS011;74367;35.280;-77.632;2024-01-30T07:44:04;2.77;;;0.57;;
70293;SDS011;74367;35.280;-77.632;2024-01-30T07:46:30;3.95;;;0.52;;
70293;SDS011;74367;35.280;-77.632;2024-01-30T07:48:56;6.45;;;0.43;;
70293;SDS011;74367;35.280;-77.632;2024-01-30T07:51:22;3.20;;;0.63;;
70293;SDS011;74367;35.280;-77.632;2024-01-30T07:53:51;3.47;;;0.57;;
70293;SDS011;74367;35.280;-77.632;2024-01-30T07:56:17;3.60;;;0.70;;
70293;SDS011;74367;35.280;-77.632;2024-01-30T07:58:43;6.40;;;0.80;;
70293;SDS011;74367;35.280;-77.632;2024-01-30T08:01:09;4.18;;;0.82;;
70293;SDS011;74367;35.280;-77.632;2024-01-30T08:03:35;3.07;;;0.90;;
70293;SDS011;74367;35.280;-77.632;2024-01-30T08:06:02;3.00;;;0.60;;
70293;SDS011;74367;35.280;-77.632;2024-01-30T08:08:28;2.80;;;0.70;;
70293;SDS011;74367;35.280;-77.632;2024-01-30T08:10:54;3.60;;;0.80;;
70293;SDS011;74367;35.280;-77.632;2024-01-30T08:13:20;3.30;;;1.00;;
70293;SDS011;74367;35.280;-77.632;2024-01-30T08:15:46;2.93;;;0.77;;
70293;SDS011;74367;35.280;-77.632;2024-01-30T08:18:12;3.85;;;1.13;;
70293;SDS011;74367;35.280;-77.632;2024-01-30T08:20:40;4.43;;;0.80;;
70293;SDS011;74367;35.280;-77.632;2024-01-30T08:23:06;3.30;;;0.43;;
70293;SDS011;74367;35.280;-77.632;2024-01-30T08:25:32;2.70;;;0.77;;
70293;SDS011;74367;35.280;-77.632;2024-01-30T08:27:58;3.40;;;0.82;;
70293;SDS011;74367;35.280;-77.632;2024-01-30T08:30:25;3.50;;;0.85;;
70293;SDS011;74367;35.280;-77.632;2024-01-30T08:32:51;5.33;;;0.93;;
70293;SDS011;74367;35.280;-77.632;2024-01-30T08:35:17;3.88;;;1.20;;
70293;SDS011;74367;35.280;-77.632;2024-01-30T08:37:43;9.55;;;1.25;;
70293;SDS011;74367;35.280;-77.632;2024-01-30T08:40:09;3.33;;;0.70;;
70293;SDS011;74367;35.280;-77.632;2024-01-30T08:42:35;4.15;;;1.25;;
70293;SDS011;74367;35.280;-77.632;2024-01-30T08:45:01;3.20;;;0.97;;
70293;SDS011;74367;35.280;-77.632;2024-01-30T08:47:30;3.20;;;0.90;;
70293;SDS011;74367;35.280;-77.632;2024-01-30T08:49:56;3.28;;;1.20;;
70293;SDS011;74367;35.280;-77.632;2024-01-30T08:52:22;3.28;;;0.93;;
70293;SDS011;74367;35.280;-77.632;2024-01-30T08:54:48;2.90;;;0.90;;
70293;SDS011;74367;35.280;-77.632;2024-01-30T08:57:14;4.07;;;1.00;;
70293;SDS011;74367;35.280;-77.632;2024-01-30T08:59:40;3.63;;;1.08;;
70293;SDS011;74367;35.280;-77.632;2024-01-30T09:02:06;4.50;;;1.33;;
70293;SDS011;74367;35.280;-77.632;2024-01-30T09:04:32;4.53;;;1.30;;
70293;SDS011;74367;35.280;-77.632;2024-01-30T09:06:58;5.15;;;0.93;;
70293;SDS011;74367;35.280;-77.632;2024-01-30T09:09:23;4.35;;;1.20;;
70293;SDS011;74367;35.280;-77.632;2024-01-30T09:11:49;3.22;;;1.00;;
70293;SDS011;74367;35.280;-77.632;2024-01-30T09:14:15;3.63;;;0.90;;
70293;SDS011;74367;35.280;-77.632;2024-01-30T09:16:41;3.60;;;1.33;;
70293;SDS011;74367;35.280;-77.632;2024-01-30T09:19:07;3.70;;;0.80;;
70293;SDS011;74367;35.280;-77.632;2024-01-30T09:21:33;3.57;;;0.90;;
70293;SDS011;74367;35.280;-77.632;2024-01-30T09:24:03;3.75;;;1.10;;
70293;SDS011;74367;35.280;-77.632;2024-01-30T09:26:29;3.67;;;1.05;;
70293;SDS011;74367;35.280;-77.632;2024-01-30T09:28:55;3.35;;;1.17;;
70293;SDS011;74367;35.280;-77.632;2024-01-30T09:31:21;3.13;;;0.93;;
70293;SDS011;74367;35.280;-77.632;2024-01-30T09:33:47;3.05;;;1.10;;
70293;SDS011;74367;35.280;-77.632;2024-01-30T09:36:14;3.05;;;0.77;;
70293;SDS011;74367;35.280;-77.632;2024-01-30T09:38:41;3.90;;;1.15;;
70293;SDS011;74367;35.280;-77.632;2024-01-30T09:41:08;3.58;;;1.40;;
70293;SDS011;74367;35.280;-77.632;2024-01-30T09:43:36;3.80;;;1.17;;
70293;SDS011;74367;35.280;-77.632;2024-01-30T09:46:04;4.30;;;1.02;;
70293;SDS011;74367;35.280;-77.632;2024-01-30T09:48:31;4.30;;;1.17;;
70293;SDS011;74367;35.280;-77.632;2024-01-30T09:50:58;3.30;;;0.90;;
70293;SDS011;74367;35.280;-77.632;2024-01-30T09:53:24;4.10;;;1.10;;
70293;SDS011;74367;35.280;-77.632;2024-01-30T09:55:51;3.42;;;0.90;;
70293;SDS011;74367;35.280;-77.632;2024-01-30T09:58:17;3.38;;;1.10;;
70293;SDS011;74367;35.280;-77.632;2024-01-30T10:00:43;2.97;;;1.00;;
70293;SDS011;74367;35.280;-77.632;2024-01-30T10:03:09;4.10;;;1.20;;
70293;SDS011;74367;35.280;-77.632;2024-01-30T10:05:35;3.15;;;0.90;;
70293;SDS011;74367;35.280;-77.632;2024-01-30T10:08:07;3.40;;;1.00;;
70293;SDS011;74367;35.280;-77.632;2024-01-30T10:10:33;3.13;;;0.82;;
70293;SDS011;74367;35.280;-77.632;2024-01-30T10:13:00;4.82;;;1.58;;
70293;SDS011;74367;35.280;-77.632;2024-01-30T10:15:27;3.97;;;1.40;;
70293;SDS011;74367;35.280;-77.632;2024-01-30T10:17:54;4.18;;;0.90;;
70293;SDS011;74367;35.280;-77.632;2024-01-30T10:20:20;4.10;;;1.80;;
70293;SDS011;74367;35.280;-77.632;2024-01-30T10:22:47;3.80;;;1.10;;
70293;SDS011;74367;35.280;-77.632;2024-01-30T10:25:14;4.50;;;1.40;;
70293;SDS011;74367;35.280;-77.632;2024-01-30T10:27:41;4.50;;;1.00;;
70293;SDS011;74367;35.280;-77.632;2024-01-30T10:30:07;4.78;;;1.25;;
70293;SDS011;74367;35.280;-77.632;2024-01-30T10:32:34;3.60;;;1.00;;
70293;SDS011;74367;35.280;-77.632;2024-01-30T10:35:00;3.58;;;1.25;;
70293;SDS011;74367;35.280;-77.632;2024-01-30T10:37:26;3.60;;;1.17;;
70293;SDS011;74367;35.280;-77.632;2024-01-30T10:39:56;3.40;;;1.00;;
70293;SDS011;74367;35.280;-77.632;2024-01-30T10:42:32;3.90;;;1.00;;
70293;SDS011;74367;35.280;-77.632;2024-01-30T10:45:06;3.47;;;1.17;;
70293;SDS011;74367;35.280;-77.632;2024-01-30T10:47:42;3.97;;;1.27;;
70293;SDS011;74367;35.280;-77.632;2024-01-30T10:50:09;4.50;;;1.47;;
70293;SDS011;74367;35.280;-77.632;2024-01-30T10:52:36;4.47;;;1.50;;
70293;SDS011;74367;35.280;-77.632;2024-01-30T10:55:02;3.55;;;1.33;;
70293;SDS011;74367;35.280;-77.632;2024-01-30T10:57:33;4.20;;;1.20;;
70293;SDS011;74367;35.280;-77.632;2024-01-30T11:00:01;4.00;;;1.23;;
70293;SDS011;74367;35.280;-77.632;2024-01-30T11:02:38;3.40;;;0.80;;
70293;SDS011;74367;35.280;-77.632;2024-01-30T11:05:06;3.47;;;1.00;;
70293;SDS011;74367;35.280;-77.632;2024-01-30T11:07:33;4.10;;;1.33;;
70293;SDS011;74367;35.280;-77.632;2024-01-30T11:12:32;6.45;;;1.30;;
70293;SDS011;74367;35.280;-77.632;2024-01-30T11:15:05;5.10;;;1.20;;
70293;SDS011;74367;35.280;-77.632;2024-01-30T11:20:20;4.03;;;1.23;;
70293;SDS011;74367;35.280;-77.632;2024-01-30T11:22:55;3.83;;;1.30;;
70293;SDS011;74367;35.280;-77.632;2024-01-30T11:25:23;4.15;;;1.20;;
70293;SDS011;74367;35.280;-77.632;2024-01-30T11:27:52;4.33;;;1.27;;
70293;SDS011;74367;35.280;-77.632;2024-01-30T11:30:25;3.67;;;1.05;;
70293;SDS011;74367;35.280;-77.632;2024-01-30T11:33:03;3.65;;;1.00;;
70293;SDS011;74367;35.280;-77.632;2024-01-30T11:38:13;3.70;;;1.35;;
70293;SDS011;74367;35.280;-77.632;2024-01-30T11:40:39;5.37;;;1.00;;
70293;SDS011;74367;35.280;-77.632;2024-01-30T11:43:07;3.55;;;1.17;;
70293;SDS011;74367;35.280;-77.632;2024-01-30T11:45:34;5.30;;;1.27;;
70293;SDS011;74367;35.280;-77.632;2024-01-30T11:48:01;4.03;;;1.17;;
70293;SDS011;74367;35.280;-77.632;2024-01-30T11:50:30;5.32;;;1.55;;
70293;SDS011;74367;35.280;-77.632;2024-01-30T11:52:57;4.10;;;1.23;;
70293;SDS011;74367;35.280;-77.632;2024-01-30T11:55:24;5.25;;;1.60;;
70293;SDS011;74367;35.280;-77.632;2024-01-30T11:57:51;4.82;;;1.30;;
70293;SDS011;74367;35.280;-77.632;2024-01-30T12:00:20;3.83;;;1.08;;
70293;SDS011;74367;35.280;-77.632;2024-01-30T12:02:52;4.60;;;1.55;;
70293;SDS011;74367;35.280;-77.632;2024-01-30T12:05:23;3.53;;;0.80;;
70293;SDS011;74367;35.280;-77.632;2024-01-30T12:07:49;3.92;;;1.30;;
70293;SDS011;74367;35.280;-77.632;2024-01-30T12:10:16;4.65;;;1.52;;
70293;SDS011;74367;35.280;-77.632;2024-01-30T12:12:44;4.30;;;1.02;;
70293;SDS011;74367;35.280;-77.632;2024-01-30T12:15:13;4.03;;;1.38;;
70293;SDS011;74367;35.280;-77.632;2024-01-30T12:17:39;5.17;;;1.77;;
70293;SDS011;74367;35.280;-77.632;2024-01-30T12:20:23;4.28;;;1.50;;
70293;SDS011;74367;35.280;-77.632;2024-01-30T12:22:49;6.20;;;1.45;;
70293;SDS011;74367;35.280;-77.632;2024-01-30T12:25:19;4.60;;;1.50;;
70293;SDS011;74367;35.280;-77.632;2024-01-30T12:27:46;4.82;;;1.45;;
70293;SDS011;74367;35.280;-77.632;2024-01-30T12:30:17;4.27;;;1.40;;
70293;SDS011;74367;35.280;-77.632;2024-01-30T12:32:45;5.82;;;1.25;;
70293;SDS011;74367;35.280;-77.632;2024-01-30T12:35:16;4.47;;;1.45;;
70293;SDS011;74367;35.280;-77.632;2024-01-30T12:37:44;5.07;;;1.55;;
70293;SDS011;74367;35.280;-77.632;2024-01-30T12:40:11;4.00;;;1.23;;
70293;SDS011;74367;35.280;-77.632;2024-01-30T12:42:40;4.53;;;1.53;;
70293;SDS011;74367;35.280;-77.632;2024-01-30T12:45:11;3.95;;;1.38;;
70293;SDS011;74367;35.280;-77.632;2024-01-30T12:47:40;5.72;;;1.48;;
70293;SDS011;74367;35.280;-77.632;2024-01-30T12:50:07;6.43;;;1.35;;
70293;SDS011;74367;35.280;-77.632;2024-01-30T12:52:34;6.05;;;1.55;;
70293;SDS011;74367;35.280;-77.632;2024-01-30T12:55:01;5.93;;;1.70;;
70293;SDS011;74367;35.280;-77.632;2024-01-30T12:57:29;6.70;;;1.55;;
70293;SDS011;74367;35.280;-77.632;2024-01-30T12:59:55;3.63;;;1.30;;
70293;SDS011;74367;35.280;-77.632;2024-01-30T13:02:21;6.83;;;1.33;;
70293;SDS011;74367;35.280;-77.632;2024-01-30T13:04:47;4.77;;;1.67;;
70293;SDS011;74367;35.280;-77.632;2024-01-30T13:07:13;4.50;;;1.50;;
70293;SDS011;74367;35.280;-77.632;2024-01-30T13:09:39;4.22;;;1.63;;
70293;SDS011;74367;35.280;-77.632;2024-01-30T13:12:05;5.25;;;2.28;;
70293;SDS011;74367;35.280;-77.632;2024-01-30T13:14:32;5.63;;;1.80;;
70293;SDS011;74367;35.280;-77.632;2024-01-30T13:16:58;4.53;;;1.88;;
70293;SDS011;74367;35.280;-77.632;2024-01-30T13:19:26;4.15;;;1.27;;
70293;SDS011;74367;35.280;-77.632;2024-01-30T13:21:52;3.95;;;1.30;;
70293;SDS011;74367;35.280;-77.632;2024-01-30T13:24:19;5.10;;;1.35;;
70293;SDS011;74367;35.280;-77.632;2024-01-30T13:26:48;4.43;;;1.70;;
70293;SDS011;74367;35.280;-77.632;2024-01-30T13:29:14;4.95;;;2.17;;
70293;SDS011;74367;35.280;-77.632;2024-01-30T13:31:40;4.65;;;2.70;;
70293;SDS011;74367;35.280;-77.632;2024-01-30T13:34:06;5.10;;;2.70;;
70293;SDS011;74367;35.280;-77.632;2024-01-30T13:36:32;4.13;;;1.83;;
70293;SDS011;74367;35.280;-77.632;2024-01-30T13:38:59;4.97;;;1.92;;
70293;SDS011;74367;35.280;-77.632;2024-01-30T13:41:25;5.65;;;2.08;;
70293;SDS011;74367;35.280;-77.632;2024-01-30T13:43:50;3.50;;;1.23;;
70293;SDS011;74367;35.280;-77.632;2024-01-30T13:46:16;4.60;;;1.60;;
70293;SDS011;74367;35.280;-77.632;2024-01-30T13:48:42;4.28;;;1.52;;
70293;SDS011;74367;35.280;-77.632;2024-01-30T13:51:08;4.22;;;1.70;;
70293;SDS011;74367;35.280;-77.632;2024-01-30T13:53:36;4.97;;;2.03;;
70293;SDS011;74367;35.280;-77.632;2024-01-30T13:56:02;4.20;;;1.43;;
70293;SDS011;74367;35.280;-77.632;2024-01-30T13:58:28;4.53;;;1.73;;
70293;SDS011;74367;35.280;-77.632;2024-01-30T14:00:54;4.85;;;1.63;;
70293;SDS011;74367;35.280;-77.632;2024-01-30T14:03:20;5.32;;;1.38;;
70293;SDS011;74367;35.280;-77.632;2024-01-30T14:05:46;5.60;;;1.83;;
70293;SDS011;74367;35.280;-77.632;2024-01-30T14:08:12;4.53;;;1.27;;
70293;SDS011;74367;35.280;-77.632;2024-01-30T14:10:38;4.68;;;2.22;;
70293;SDS011;74367;35.280;-77.632;2024-01-30T14:13:03;4.65;;;3.25;;
70293;SDS011;74367;35.280;-77.632;2024-01-30T14:15:30;5.63;;;2.23;;
70293;SDS011;74367;35.280;-77.632;2024-01-30T14:17:56;3.80;;;1.08;;
70293;SDS011;74367;35.280;-77.632;2024-01-30T14:20:22;6.07;;;1.65;;
70293;SDS011;74367;35.280;-77.632;2024-01-30T14:22:48;4.25;;;1.30;;
70293;SDS011;74367;35.280;-77.632;2024-01-30T14:25:14;3.80;;;1.53;;